createdAt,value
2019-03-23T00:01:02.334Z,66.20
2019-03-23T00:03:31.224Z,66.20
2019-03-23T00:06:00.292Z,66.10
2019-03-23T00:08:29.215Z,67.10
2019-03-23T00:10:58.099Z,67.50
2019-03-23T00:13:27.921Z,67.70
2019-03-23T00:15:56.847Z,68.40
2019-03-23T00:18:25.758Z,68.40
2019-03-23T00:20:54.678Z,68.90
2019-03-23T00:23:23.589Z,69.10
2019-03-23T00:25:52.494Z,69.10
2019-03-23T00:28:21.391Z,69.30
2019-03-23T00:30:50.253Z,69.30
2019-03-23T00:33:19.125Z,69.50
2019-03-23T00:35:47.976Z,69.90
2019-03-23T00:38:17.006Z,70.30
2019-03-23T00:40:45.874Z,70.00
2019-03-23T00:43:14.740Z,70.00
2019-03-23T00:45:43.621Z,70.00
2019-03-23T00:48:12.470Z,69.60
2019-03-23T00:50:41.331Z,69.40
2019-03-23T00:53:10.209Z,69.20
2019-03-23T00:55:38.996Z,69.20
2019-03-23T00:58:07.862Z,69.10
2019-03-23T01:00:36.738Z,69.20
2019-03-23T01:03:05.599Z,69.10
2019-03-23T01:05:35.381Z,68.70
2019-03-23T01:08:04.268Z,68.70
2019-03-23T01:10:33.167Z,69.20
2019-03-23T01:13:02.025Z,69.50
2019-03-23T01:15:30.818Z,69.50
2019-03-23T01:17:59.713Z,69.70
2019-03-23T01:20:28.574Z,70.60
2019-03-23T01:22:57.831Z,70.20
2019-03-23T01:25:26.699Z,70.50
2019-03-23T01:27:55.570Z,70.60
2019-03-23T01:30:24.439Z,70.70
2019-03-23T01:32:53.298Z,71.40
2019-03-23T01:35:22.162Z,71.60
2019-03-23T01:37:51.041Z,72.00
2019-03-23T01:40:19.840Z,72.00
2019-03-23T01:42:48.699Z,72.20
2019-03-23T01:45:17.587Z,72.40
2019-03-23T01:47:46.453Z,72.10
2019-03-23T01:50:15.314Z,72.30
2019-03-23T01:52:45.219Z,72.40
2019-03-23T01:55:14.084Z,72.10
2019-03-23T01:57:42.946Z,71.80
2019-03-23T02:00:13.380Z,71.60
2019-03-23T02:02:42.249Z,71.70
2019-03-23T02:05:11.109Z,71.80
2019-03-23T02:07:40.005Z,71.80
2019-03-23T02:10:10.504Z,72.50
2019-03-23T02:12:39.362Z,72.70
2019-03-23T02:15:10.577Z,72.70
2019-03-23T02:17:39.435Z,72.50
2019-03-23T02:20:10.329Z,72.90
2019-03-23T02:22:39.264Z,73.10
2019-03-23T02:25:08.804Z,73.10
2019-03-23T02:27:37.670Z,73.20
2019-03-23T02:30:09.432Z,73.30
2019-03-23T02:32:38.296Z,73.50
2019-03-23T02:35:07.799Z,73.80
2019-03-23T02:37:36.679Z,74.40
2019-03-23T02:40:09.809Z,75.90
2019-03-23T02:42:38.695Z,76.80
2019-03-23T02:45:11.650Z,77.30
2019-03-23T02:47:40.547Z,78.00
2019-03-23T02:50:10.132Z,78.50
2019-03-23T02:52:39.000Z,78.80
2019-03-23T02:55:09.003Z,78.50
2019-03-23T02:57:37.878Z,78.80
2019-03-23T03:00:14.112Z,78.80
2019-03-23T03:02:43.002Z,78.90
2019-03-23T03:05:11.859Z,78.90
2019-03-23T03:07:42.959Z,78.80
2019-03-23T03:10:12.471Z,78.60
2019-03-23T03:12:41.337Z,78.80
2019-03-23T03:15:10.221Z,78.10
2019-03-23T03:17:39.095Z,77.80
2019-03-23T03:20:09.714Z,77.60
2019-03-23T03:22:38.742Z,77.40
2019-03-23T03:25:07.883Z,77.10
2019-03-23T03:27:36.781Z,76.60
2019-03-23T03:30:06.999Z,76.30
2019-03-23T03:32:35.847Z,76.40
2019-03-23T03:35:05.561Z,75.80
2019-03-23T03:37:34.443Z,76.20
2019-03-23T03:40:04.071Z,75.80
2019-03-23T03:42:32.953Z,75.80
2019-03-23T03:45:01.853Z,76.30
2019-03-23T03:47:30.725Z,75.00
2019-03-23T03:49:59.578Z,74.50
2019-03-23T03:52:28.490Z,74.50
2019-03-23T03:54:57.326Z,74.10
2019-03-23T03:57:26.190Z,73.50
2019-03-23T03:59:55.007Z,73.30
2019-03-23T04:02:23.877Z,73.20
2019-03-23T04:04:52.740Z,72.90
2019-03-23T04:07:23.530Z,72.70
2019-03-23T04:09:52.400Z,72.40
2019-03-23T04:12:21.265Z,72.90
2019-03-23T04:14:50.131Z,72.60
2019-03-23T04:17:18.999Z,72.40
2019-03-23T04:19:47.863Z,72.50
2019-03-23T04:22:16.795Z,72.40
2019-03-23T04:24:45.979Z,72.60
2019-03-23T04:27:14.835Z,72.50
2019-03-23T04:29:43.724Z,72.40
2019-03-23T04:32:12.584Z,72.30
2019-03-23T04:34:41.459Z,72.50
2019-03-23T04:37:10.376Z,72.40
2019-03-23T04:39:39.231Z,72.10
2019-03-23T04:42:08.089Z,71.70
2019-03-23T04:44:36.983Z,71.40
2019-03-23T04:47:05.839Z,70.70
2019-03-23T04:49:34.715Z,70.00
2019-03-23T04:52:03.603Z,68.50
2019-03-23T04:54:32.485Z,68.40
2019-03-23T04:57:01.274Z,67.50
2019-03-23T04:59:30.166Z,66.70
2019-03-23T05:01:59.046Z,66.90
2019-03-23T05:04:27.900Z,65.80
2019-03-23T05:06:57.686Z,65.50
2019-03-23T05:09:26.483Z,63.90
2019-03-23T05:11:55.345Z,62.50
2019-03-23T05:14:24.233Z,62.40
2019-03-23T05:16:53.024Z,61.80
2019-03-23T05:19:21.954Z,60.80
2019-03-23T05:21:50.841Z,60.50
2019-03-23T05:24:19.723Z,60.00
2019-03-23T05:26:48.591Z,59.80
2019-03-23T05:29:17.477Z,60.20
2019-03-23T05:31:46.346Z,60.00
2019-03-23T05:34:15.208Z,60.00
2019-03-23T05:36:44.098Z,60.70
2019-03-23T05:39:12.965Z,60.90
2019-03-23T05:41:42.778Z,60.60
2019-03-23T05:44:11.630Z,60.10
2019-03-23T05:46:40.486Z,59.20
2019-03-23T05:49:09.346Z,58.70
2019-03-23T05:51:38.238Z,58.00
2019-03-23T05:54:07.303Z,57.70
2019-03-23T05:56:36.196Z,56.20
2019-03-23T05:59:05.076Z,55.60
2019-03-23T06:01:33.930Z,55.90
2019-03-23T06:04:02.765Z,55.90
2019-03-23T06:06:31.606Z,56.10
2019-03-23T06:09:02.084Z,56.50
2019-03-23T06:11:30.952Z,56.50
2019-03-23T06:13:59.826Z,56.70
2019-03-23T06:16:28.692Z,55.70
2019-03-23T06:18:57.573Z,56.10
2019-03-23T06:21:26.466Z,56.30
2019-03-23T06:23:55.322Z,56.00
2019-03-23T06:26:26.186Z,55.70
2019-03-23T06:28:55.059Z,55.90
2019-03-23T06:31:24.043Z,55.80
2019-03-23T06:33:52.927Z,55.60
2019-03-23T06:36:21.791Z,55.80
2019-03-23T06:38:50.655Z,56.50
2019-03-23T06:41:19.544Z,56.50
2019-03-23T06:43:48.786Z,57.00
2019-03-23T06:46:17.641Z,57.90
2019-03-23T06:48:46.519Z,57.40
2019-03-23T06:51:15.379Z,57.80
2019-03-23T06:53:44.244Z,57.90
2019-03-23T06:56:13.144Z,57.80
2019-03-23T06:58:42.014Z,57.50
2019-03-23T07:01:10.882Z,57.60
2019-03-23T07:03:39.779Z,57.80
2019-03-23T07:06:08.634Z,57.40
2019-03-23T07:08:37.507Z,57.90
2019-03-23T07:11:06.544Z,57.10
2019-03-23T07:13:35.405Z,57.10
2019-03-23T07:16:04.262Z,57.30
2019-03-23T07:18:33.444Z,57.90
2019-03-23T07:21:02.302Z,57.40
2019-03-23T07:23:31.163Z,57.80
2019-03-23T07:26:00.054Z,58.20
2019-03-23T07:28:28.910Z,58.50
2019-03-23T07:30:57.770Z,59.00
2019-03-23T07:33:26.658Z,59.90
2019-03-23T07:35:55.514Z,60.70
2019-03-23T07:38:24.372Z,61.60
2019-03-23T07:40:53.265Z,62.00
2019-03-23T07:43:24.044Z,62.40
2019-03-23T07:45:52.903Z,62.90
2019-03-23T07:48:21.795Z,64.30
2019-03-23T07:50:50.654Z,65.50
2019-03-23T07:53:19.525Z,65.60
2019-03-23T07:55:48.666Z,67.60
2019-03-23T07:58:17.582Z,67.80
2019-03-23T08:00:46.449Z,68.70
2019-03-23T08:03:15.322Z,69.30
2019-03-23T08:05:44.195Z,70.00
2019-03-23T08:08:13.058Z,71.00
2019-03-23T08:10:46.096Z,71.70
2019-03-23T08:13:15.004Z,72.30
2019-03-23T08:15:43.856Z,72.50
2019-03-23T08:18:12.743Z,73.30
2019-03-23T08:20:41.602Z,74.10
2019-03-23T08:23:10.500Z,75.00
2019-03-23T08:25:39.361Z,76.10
2019-03-23T08:28:10.058Z,77.10
2019-03-23T08:30:38.947Z,78.80
2019-03-23T08:33:07.900Z,79.30
2019-03-23T08:35:36.785Z,79.90
2019-03-23T08:38:05.642Z,81.30
2019-03-23T08:40:35.799Z,82.30
2019-03-23T08:43:04.803Z,83.00
2019-03-23T08:45:33.671Z,83.70
2019-03-23T08:48:02.565Z,84.50
2019-03-23T08:50:31.459Z,84.80
2019-03-23T08:53:00.347Z,85.20
2019-03-23T08:55:29.219Z,85.70
2019-03-23T08:57:58.078Z,85.90
2019-03-23T09:00:26.945Z,86.80
2019-03-23T09:02:56.767Z,86.70
2019-03-23T09:05:25.647Z,86.40
2019-03-23T09:07:54.514Z,86.60
2019-03-23T09:10:23.407Z,87.10
2019-03-23T09:12:52.258Z,87.30
2019-03-23T09:15:21.159Z,87.90
2019-03-23T09:17:50.033Z,88.80
2019-03-23T09:20:19.001Z,89.10
2019-03-23T09:22:47.790Z,89.50
2019-03-23T09:25:16.742Z,90.00
2019-03-23T09:27:45.602Z,90.10
2019-03-23T09:30:14.788Z,90.10
2019-03-23T09:32:43.671Z,90.40
2019-03-23T09:35:12.569Z,90.50
2019-03-23T09:37:41.433Z,90.60
2019-03-23T09:40:11.390Z,90.60
2019-03-23T09:42:40.381Z,90.80
2019-03-23T09:45:09.184Z,91.00
2019-03-23T09:47:38.096Z,91.10
2019-03-23T09:50:09.227Z,91.10
2019-03-23T09:52:38.090Z,91.30
2019-03-23T09:55:07.525Z,91.20
2019-03-23T09:57:36.389Z,91.30
2019-03-23T10:00:12.268Z,91.50
2019-03-23T10:02:41.146Z,91.90
2019-03-23T10:05:10.032Z,91.90
2019-03-23T10:07:38.930Z,92.10
2019-03-23T10:10:07.872Z,92.30
2019-03-23T10:12:37.650Z,92.20
2019-03-23T10:15:09.198Z,92.50
2019-03-23T10:17:38.075Z,92.70
2019-03-23T10:20:07.313Z,92.80
2019-03-23T10:22:36.211Z,93.10
2019-03-23T10:25:06.694Z,93.40
2019-03-23T10:27:35.577Z,93.50
2019-03-23T10:30:07.561Z,93.50
2019-03-23T10:32:36.432Z,93.60
2019-03-23T10:35:07.251Z,94.10
2019-03-23T10:37:36.147Z,94.20
2019-03-23T10:40:09.583Z,94.20
2019-03-23T10:42:38.463Z,94.40
2019-03-23T10:45:08.211Z,94.60
2019-03-23T10:47:37.330Z,94.60
2019-03-23T10:50:06.339Z,94.80
2019-03-23T10:52:35.226Z,94.80
2019-03-23T10:55:05.942Z,94.90
2019-03-23T10:57:34.809Z,94.90
2019-03-23T11:00:11.720Z,95.10
2019-03-23T11:02:40.589Z,95.10
2019-03-23T11:05:09.499Z,95.00
2019-03-23T11:07:38.390Z,95.10
2019-03-23T11:10:09.772Z,95.10
2019-03-23T11:12:38.631Z,95.10
2019-03-23T11:15:08.856Z,95.20
2019-03-23T11:17:39.617Z,95.10
2019-03-23T11:20:10.535Z,95.10
2019-03-23T11:22:39.549Z,95.10
2019-03-23T11:25:08.421Z,95.30
2019-03-23T11:27:37.278Z,95.30
2019-03-23T11:30:11.574Z,95.30
2019-03-23T11:32:40.447Z,95.30
2019-03-23T11:37:51.856Z,95.10
2019-03-23T11:40:20.779Z,95.30
2019-03-23T11:42:50.543Z,95.30
2019-03-23T11:45:19.530Z,95.20
2019-03-23T11:47:48.412Z,95.50
2019-03-23T11:50:17.291Z,95.40
2019-03-23T11:52:47.178Z,95.40
2019-03-23T11:55:15.994Z,95.40
2019-03-23T11:57:44.849Z,95.50
2019-03-23T12:00:14.872Z,95.60
2019-03-23T12:02:43.759Z,95.50
2019-03-23T12:05:12.633Z,95.50
2019-03-23T12:07:41.513Z,95.70
2019-03-23T12:10:11.425Z,95.60
2019-03-23T12:12:41.211Z,95.60
2019-03-23T12:15:11.534Z,95.60
2019-03-23T12:17:40.407Z,95.60
2019-03-23T12:20:09.281Z,95.80
2019-03-23T12:22:38.177Z,95.80
2019-03-23T12:25:07.050Z,95.80
2019-03-23T12:27:35.908Z,95.90
2019-03-23T12:30:07.814Z,95.90
2019-03-23T12:32:36.697Z,95.90
2019-03-23T12:35:07.337Z,95.90
2019-03-23T12:37:36.234Z,95.90
2019-03-23T12:40:06.466Z,95.90
2019-03-23T12:42:35.655Z,95.90
2019-03-23T12:45:05.486Z,96.10
2019-03-23T12:47:34.359Z,96.20
2019-03-23T12:50:04.109Z,96.20
2019-03-23T12:52:33.007Z,96.10
2019-03-23T12:55:01.882Z,96.10
2019-03-23T12:57:30.737Z,96.00
2019-03-23T12:59:59.626Z,96.10
2019-03-23T13:02:28.518Z,96.00
2019-03-23T13:04:57.381Z,96.20
2019-03-23T13:07:26.267Z,96.10
2019-03-23T13:09:55.188Z,96.00
2019-03-23T13:12:24.046Z,96.00
2019-03-23T13:14:52.939Z,96.00
2019-03-23T13:17:21.805Z,96.00
2019-03-23T13:19:50.611Z,95.90
2019-03-23T13:22:19.502Z,95.90
2019-03-23T13:24:48.378Z,96.10
2019-03-23T13:27:17.238Z,96.10
2019-03-23T13:29:46.112Z,96.10
2019-03-23T13:32:14.979Z,96.50
2019-03-23T13:34:44.313Z,96.30
2019-03-23T13:37:13.200Z,96.40
2019-03-23T13:39:42.078Z,96.40
2019-03-23T13:42:10.954Z,96.40
2019-03-23T13:44:39.851Z,96.50
2019-03-23T13:47:15.594Z,96.50
2019-03-23T13:52:13.019Z,96.40
2019-03-23T13:54:41.955Z,96.60
2019-03-23T13:57:10.842Z,96.70
2019-03-23T13:59:39.718Z,96.60
2019-03-23T14:02:08.608Z,96.70
2019-03-23T14:04:38.282Z,96.70
2019-03-23T14:07:07.149Z,96.80
2019-03-23T14:09:36.034Z,96.70
2019-03-23T14:12:04.923Z,96.70
2019-03-23T14:14:33.807Z,96.70
2019-03-23T14:17:02.687Z,96.70
2019-03-23T14:19:31.591Z,96.70
2019-03-23T14:22:00.398Z,96.70
2019-03-23T14:24:29.269Z,96.70
2019-03-23T14:26:58.174Z,97.00
2019-03-23T14:29:27.050Z,96.90
2019-03-23T14:31:56.002Z,96.80
2019-03-23T14:34:24.919Z,96.80
2019-03-23T14:36:53.817Z,96.70
2019-03-23T14:39:22.665Z,96.70
2019-03-23T14:41:51.562Z,96.70
2019-03-23T14:44:20.443Z,96.80
2019-03-23T14:46:49.314Z,96.80
2019-03-23T14:49:18.194Z,96.70
2019-03-23T14:51:47.070Z,96.60
2019-03-23T14:54:15.964Z,96.40
2019-03-23T14:56:44.767Z,96.30
2019-03-23T14:59:13.704Z,96.30
2019-03-23T15:01:42.618Z,96.30
2019-03-23T15:04:13.414Z,96.40
2019-03-23T15:06:43.920Z,96.40
2019-03-23T15:09:12.809Z,96.30
2019-03-23T15:11:41.690Z,96.50
2019-03-23T15:14:10.563Z,96.60
2019-03-23T15:16:39.482Z,96.60
2019-03-23T15:19:08.339Z,96.60
2019-03-23T15:21:39.134Z,96.50
2019-03-23T15:24:08.043Z,96.40
2019-03-23T15:26:36.935Z,96.50
2019-03-23T15:29:05.803Z,96.30
2019-03-23T15:31:34.711Z,96.30
2019-03-23T15:34:03.604Z,96.30
2019-03-23T15:36:32.487Z,96.30
2019-03-23T15:39:01.406Z,96.50
2019-03-23T15:41:30.269Z,96.50
2019-03-23T15:43:59.146Z,96.40
2019-03-23T15:46:28.055Z,96.30
2019-03-23T15:48:56.930Z,96.30
2019-03-23T15:51:25.807Z,96.30
2019-03-23T15:53:54.687Z,96.40
2019-03-23T15:56:23.562Z,96.20
2019-03-23T15:58:52.458Z,96.10
2019-03-23T16:01:23.225Z,95.90
2019-03-23T16:03:51.850Z,96.00
2019-03-23T16:06:20.784Z,96.00
2019-03-23T16:08:49.693Z,96.00
2019-03-23T16:11:18.571Z,96.00
2019-03-23T16:13:47.504Z,95.90
2019-03-23T16:16:26.940Z,96.00
2019-03-23T16:18:55.877Z,96.00
2019-03-23T16:21:24.817Z,96.00
2019-03-23T16:23:53.721Z,96.10
2019-03-23T16:26:22.654Z,96.00
2019-03-23T16:28:51.606Z,95.80
2019-03-23T16:31:20.528Z,95.80
2019-03-23T16:33:49.467Z,95.70
2019-03-23T16:36:18.370Z,95.80
2019-03-23T16:38:47.284Z,95.90
2019-03-23T16:41:16.261Z,96.00
2019-03-23T16:43:45.157Z,95.90
2019-03-23T16:46:14.066Z,95.80
2019-03-23T16:48:42.990Z,95.70
2019-03-23T16:51:11.892Z,95.90
2019-03-23T16:56:13.177Z,95.90
2019-03-23T16:58:42.087Z,95.90
2019-03-23T17:01:10.960Z,95.70
2019-03-23T17:03:39.893Z,95.70
2019-03-23T17:06:08.796Z,95.90
2019-03-23T17:08:37.690Z,95.90
2019-03-23T17:11:06.695Z,96.00
2019-03-23T17:13:35.569Z,95.90
2019-03-23T17:16:04.438Z,95.90
2019-03-23T17:18:34.914Z,95.90
2019-03-23T17:21:03.877Z,95.70
2019-03-23T17:23:32.753Z,95.60
2019-03-23T17:26:01.694Z,95.80
2019-03-23T17:28:30.611Z,95.60
2019-03-23T17:30:59.511Z,96.00
2019-03-23T17:33:28.442Z,95.50
2019-03-23T17:35:57.335Z,95.50
2019-03-23T17:38:26.235Z,95.50
2019-03-23T17:40:55.174Z,95.20
2019-03-23T17:43:24.545Z,95.30
2019-03-23T17:45:53.433Z,95.20
2019-03-23T17:48:22.372Z,95.60
2019-03-23T17:50:51.279Z,95.60
2019-03-23T17:53:20.167Z,95.50
2019-03-23T17:55:49.086Z,95.40
2019-03-23T17:58:17.991Z,95.30
2019-03-23T18:00:46.974Z,95.20
2019-03-23T18:03:15.924Z,95.40
2019-03-23T18:05:44.833Z,95.50
2019-03-23T18:08:13.734Z,95.50
2019-03-23T18:10:42.650Z,95.50
2019-03-23T18:13:16.568Z,95.50
2019-03-23T18:15:42.988Z,95.30
2019-03-23T18:18:11.902Z,95.50
2019-03-23T18:20:40.837Z,95.50
2019-03-23T18:23:09.725Z,95.60
2019-03-23T18:25:38.643Z,95.70
2019-03-23T18:28:07.548Z,95.70
2019-03-23T18:30:38.103Z,95.60
2019-03-23T18:33:07.038Z,95.50
2019-03-23T18:35:36.008Z,95.50
2019-03-23T18:38:05.012Z,95.70
2019-03-23T18:40:34.866Z,95.70
2019-03-23T18:43:03.860Z,95.70
2019-03-23T18:45:33.147Z,95.60
2019-03-23T18:48:02.076Z,95.80
2019-03-23T18:50:30.992Z,95.70
2019-03-23T18:52:59.887Z,95.80
2019-03-23T18:55:28.996Z,95.90
2019-03-23T18:57:58.789Z,95.70
2019-03-23T19:00:33.036Z,95.70
2019-03-23T19:03:02.601Z,95.70
2019-03-23T19:05:31.504Z,95.70
2019-03-23T19:08:00.402Z,95.70
2019-03-23T19:10:29.323Z,95.60
2019-03-23T19:12:58.255Z,95.50
2019-03-23T19:15:30.827Z,95.70
2019-03-23T19:17:59.831Z,95.60
2019-03-23T19:20:28.778Z,95.60
2019-03-23T19:22:57.728Z,95.60
2019-03-23T19:25:26.678Z,95.50
2019-03-23T19:27:55.543Z,95.50
2019-03-23T19:30:24.418Z,95.30
2019-03-23T19:32:53.350Z,95.40
2019-03-23T19:35:22.318Z,95.50
2019-03-23T19:37:51.220Z,95.60
2019-03-23T19:40:20.127Z,95.60
2019-03-23T19:42:50.984Z,95.40
2019-03-23T19:45:19.880Z,95.40
2019-03-23T19:47:48.916Z,95.40
2019-03-23T19:50:17.835Z,95.40
2019-03-23T19:52:46.737Z,95.30
2019-03-23T19:55:15.657Z,95.30
2019-03-23T19:57:44.551Z,95.30
2019-03-23T20:00:13.463Z,95.60
2019-03-23T20:02:42.515Z,95.30
2019-03-23T20:05:11.414Z,95.50
2019-03-23T20:07:40.286Z,95.30
2019-03-23T20:10:09.953Z,95.40
2019-03-23T20:12:38.867Z,95.40
2019-03-23T20:15:08.292Z,95.40
2019-03-23T20:17:40.910Z,95.50
2019-03-23T20:20:09.817Z,95.30
2019-03-23T20:22:38.710Z,95.40
2019-03-23T20:25:08.774Z,95.20
2019-03-23T20:27:37.675Z,95.10
2019-03-23T20:30:08.415Z,95.20
2019-03-23T20:32:37.437Z,95.20
2019-03-23T20:35:13.662Z,95.10
2019-03-23T20:37:42.603Z,94.90
2019-03-23T20:40:13.305Z,94.90
2019-03-23T20:42:43.755Z,94.80
2019-03-23T20:45:12.554Z,94.80
2019-03-23T20:47:41.479Z,94.80
2019-03-23T20:50:10.860Z,94.60
2019-03-23T20:52:41.835Z,94.70
2019-03-23T20:55:25.191Z,94.60
2019-03-23T20:57:54.543Z,94.70
2019-03-23T21:00:23.421Z,94.70
2019-03-23T21:02:52.328Z,94.60
2019-03-23T21:05:21.241Z,94.50
2019-03-23T21:07:50.130Z,94.50
2019-03-23T21:10:19.054Z,94.50
2019-03-23T21:12:47.946Z,94.50
2019-03-23T21:15:16.936Z,94.50
2019-03-23T21:17:51.435Z,94.50
2019-03-23T21:20:17.290Z,94.50
2019-03-23T21:22:46.177Z,94.50
2019-03-23T21:25:15.103Z,94.50
2019-03-23T21:27:43.987Z,94.40
2019-03-23T21:30:14.615Z,94.50
2019-03-23T21:32:43.539Z,94.30
2019-03-23T21:35:12.448Z,94.20
2019-03-23T21:37:41.339Z,94.50
2019-03-23T21:40:10.332Z,94.30
2019-03-23T21:42:40.130Z,94.50
2019-03-23T21:45:09.022Z,94.50
2019-03-23T21:47:37.936Z,94.30
2019-03-23T21:50:07.455Z,94.50
2019-03-23T21:52:36.361Z,94.50
2019-03-23T21:55:06.017Z,94.60
2019-03-23T21:57:35.103Z,94.60
2019-03-23T22:00:05.732Z,94.60
2019-03-23T22:02:34.703Z,94.60
2019-03-23T22:05:04.213Z,94.50
2019-03-23T22:07:33.136Z,94.40
2019-03-23T22:10:02.055Z,94.40
2019-03-23T22:12:30.949Z,94.50
2019-03-23T22:14:59.847Z,94.50
2019-03-23T22:17:28.774Z,94.30
2019-03-23T22:19:59.674Z,94.20
2019-03-23T22:22:28.560Z,94.20
2019-03-23T22:24:57.468Z,94.30
2019-03-23T22:27:26.366Z,94.40
2019-03-23T22:29:56.895Z,94.70
2019-03-23T22:32:25.803Z,94.50
2019-03-23T22:34:54.692Z,94.50
2019-03-23T22:37:23.594Z,94.40
2019-03-23T22:39:52.524Z,94.40
2019-03-23T22:42:21.407Z,94.30
2019-03-23T22:44:56.095Z,94.50
2019-03-23T22:47:24.999Z,94.50
2019-03-23T22:49:53.901Z,94.50
2019-03-23T22:52:22.785Z,94.50
2019-03-23T22:54:51.728Z,94.20
2019-03-23T22:57:20.642Z,94.20
2019-03-23T22:59:49.542Z,94.20
2019-03-23T23:02:18.476Z,93.90
2019-03-23T23:04:47.379Z,94.00
2019-03-23T23:07:16.345Z,93.90
2019-03-23T23:09:45.249Z,94.10
2019-03-23T23:12:14.146Z,93.90
2019-03-23T23:14:43.510Z,93.90
2019-03-23T23:17:12.509Z,93.80
2019-03-23T23:19:41.405Z,93.70
2019-03-23T23:22:10.451Z,93.70
2019-03-23T23:24:39.374Z,93.50
2019-03-23T23:27:08.277Z,93.30
2019-03-23T23:29:37.169Z,93.50
2019-03-23T23:32:06.122Z,93.40
2019-03-23T23:34:35.079Z,93.30
2019-03-23T23:37:03.979Z,93.30
2019-03-23T23:39:32.886Z,93.40
2019-03-23T23:42:01.769Z,93.20
2019-03-23T23:44:37.514Z,93.20
2019-03-23T23:47:06.411Z,93.00
2019-03-23T23:49:35.304Z,93.10
2019-03-23T23:52:04.253Z,92.90
2019-03-23T23:54:33.160Z,92.90
2019-03-23T23:57:02.176Z,92.90
2019-03-23T23:59:31.074Z,92.70
